createdAt,value
2023-06-12T00:00:04.421Z,20.00
2023-06-12T00:01:04.468Z,20.25
2023-06-12T00:02:04.408Z,20.12
2023-06-12T00:03:04.255Z,20.00
2023-06-12T00:04:04.317Z,19.81
2023-06-12T00:05:03.769Z,19.94
2023-06-12T00:06:03.932Z,19.75
2023-06-12T00:07:03.677Z,19.88
2023-06-12T00:08:04.256Z,19.69
2023-06-12T00:09:03.900Z,19.62
2023-06-12T00:10:03.885Z,19.44
2023-06-12T00:12:04.548Z,19.50
2023-06-12T00:14:03.475Z,20.19
2023-06-12T00:15:04.168Z,20.19
2023-06-12T00:16:03.906Z,20.12
2023-06-12T00:17:03.713Z,20.00
2023-06-12T00:18:03.759Z,19.94
2023-06-12T00:19:03.534Z,19.88
2023-06-12T00:20:04.279Z,19.69
2023-06-12T00:21:04.201Z,19.75
2023-06-12T00:22:04.259Z,19.94
2023-06-12T00:23:04.258Z,19.94
2023-06-12T00:24:04.432Z,19.62
2023-06-12T00:25:04.015Z,19.50
2023-06-12T00:27:03.653Z,19.31
2023-06-12T00:29:04.302Z,19.31
2023-06-12T00:31:03.931Z,19.25
2023-06-12T00:32:03.660Z,19.31
2023-06-12T00:33:04.658Z,19.31
2023-06-12T00:34:03.691Z,19.25
2023-06-12T00:35:03.790Z,19.31
2023-06-12T00:36:03.578Z,19.38
2023-06-12T00:38:04.187Z,19.56
2023-06-12T00:39:03.947Z,19.62
2023-06-12T00:40:03.712Z,19.50
2023-06-12T00:41:04.508Z,19.44
2023-06-12T00:42:04.178Z,19.31
2023-06-12T00:43:03.864Z,19.56
2023-06-12T00:44:03.953Z,19.50
2023-06-12T00:46:04.238Z,19.38
2023-06-12T00:47:04.114Z,19.31
2023-06-12T00:48:03.753Z,19.19
2023-06-12T00:49:03.801Z,18.94
2023-06-12T00:50:04.507Z,18.88
2023-06-12T00:52:03.823Z,18.69
2023-06-12T00:53:04.346Z,18.56
2023-06-12T00:54:04.375Z,18.44
2023-06-12T00:55:04.028Z,18.31
2023-06-12T00:57:03.541Z,18.50
2023-06-12T00:58:04.258Z,18.38
2023-06-12T00:59:03.859Z,18.38
2023-06-12T01:00:03.540Z,18.38
2023-06-12T01:01:04.387Z,18.50
2023-06-12T01:02:04.270Z,18.44
2023-06-12T01:03:04.354Z,18.44
2023-06-12T01:04:04.026Z,18.38
2023-06-12T01:05:03.689Z,18.31
2023-06-12T01:06:03.877Z,18.25
2023-06-12T01:07:03.959Z,18.38
2023-06-12T01:09:04.350Z,18.94
2023-06-12T01:11:03.935Z,19.06
2023-06-12T01:12:03.951Z,19.25
2023-06-12T01:13:04.041Z,19.25
2023-06-12T01:15:04.114Z,18.94
2023-06-12T01:16:04.118Z,18.75
2023-06-12T01:17:03.991Z,18.81
2023-06-12T01:18:03.938Z,18.69
2023-06-12T01:19:03.870Z,18.88
2023-06-12T01:20:03.547Z,18.81
2023-06-12T01:21:04.180Z,18.62
2023-06-12T01:22:03.783Z,18.69
2023-06-12T01:24:04.123Z,18.69
2023-06-12T01:25:03.853Z,18.75
2023-06-12T01:26:04.062Z,19.12
2023-06-12T01:27:03.693Z,18.94
2023-06-12T01:28:03.803Z,18.94
2023-06-12T01:29:03.941Z,18.81
2023-06-12T01:30:03.631Z,18.81
2023-06-12T01:31:04.473Z,18.69
2023-06-12T01:32:04.198Z,18.69
2023-06-12T01:34:03.933Z,18.31
2023-06-12T01:35:04.417Z,18.31
2023-06-12T01:36:04.370Z,18.31
2023-06-12T01:38:03.546Z,18.19
2023-06-12T01:39:04.202Z,18.12
2023-06-12T01:40:03.992Z,18.25
2023-06-12T01:41:04.090Z,18.12
2023-06-12T01:42:03.704Z,18.31
2023-06-12T01:43:03.864Z,18.19
2023-06-12T01:44:03.966Z,18.25
2023-06-12T01:45:03.530Z,18.19
2023-06-12T01:46:04.180Z,18.25
2023-06-12T01:47:04.007Z,18.25
2023-06-12T01:48:04.326Z,18.25
2023-06-12T01:49:04.097Z,18.44
2023-06-12T01:51:04.253Z,19.06
2023-06-12T01:52:04.064Z,19.00
2023-06-12T01:53:03.625Z,19.06
2023-06-12T01:54:04.350Z,18.94
2023-06-12T01:55:04.036Z,19.12
2023-06-12T01:56:03.690Z,19.12
2023-06-12T01:57:03.826Z,19.06
2023-06-12T01:58:04.346Z,19.25
2023-06-12T02:01:03.616Z,19.38
2023-06-12T02:02:04.379Z,19.38
2023-06-12T02:03:04.135Z,19.06
2023-06-12T02:04:03.872Z,18.94
2023-06-12T02:05:04.422Z,18.69
2023-06-12T02:07:04.106Z,18.62
2023-06-12T02:10:04.110Z,18.75
2023-06-12T02:11:03.682Z,18.69
2023-06-12T02:12:04.288Z,18.50
2023-06-12T02:14:03.776Z,18.69
2023-06-12T02:15:04.356Z,18.81
2023-06-12T02:16:04.140Z,18.88
2023-06-12T02:18:04.519Z,18.75
2023-06-12T02:19:04.096Z,18.56
2023-06-12T02:20:04.107Z,18.88
2023-06-12T02:21:03.794Z,19.12
2023-06-12T02:22:03.784Z,19.25
2023-06-12T02:24:04.315Z,19.44
2023-06-12T02:25:03.777Z,19.56
2023-06-12T02:26:04.499Z,19.62
2023-06-12T02:27:04.172Z,19.88
2023-06-12T02:28:04.254Z,19.69
2023-06-12T02:29:03.545Z,19.75
2023-06-12T02:30:03.555Z,19.62
2023-06-12T02:31:04.089Z,19.56
2023-06-12T02:32:04.074Z,19.62
2023-06-12T02:33:03.614Z,19.81
2023-06-12T02:34:04.176Z,19.62
2023-06-12T02:35:03.470Z,19.44
2023-06-12T02:37:04.161Z,19.38
2023-06-12T02:40:04.179Z,19.25
2023-06-12T02:42:04.430Z,19.25
2023-06-12T02:44:04.011Z,19.19
2023-06-12T02:46:04.473Z,19.25
2023-06-12T02:47:04.180Z,19.19
2023-06-12T02:48:03.912Z,19.31
2023-06-12T02:49:03.845Z,19.44
2023-06-12T02:50:03.707Z,19.50
2023-06-12T02:52:04.356Z,19.50
2023-06-12T02:54:04.200Z,19.56
2023-06-12T02:55:04.110Z,19.56
2023-06-12T02:56:03.606Z,19.44
2023-06-12T02:57:03.702Z,19.44
2023-06-12T02:58:04.268Z,19.44
2023-06-12T02:59:04.482Z,19.38
2023-06-12T03:01:04.109Z,19.25
2023-06-12T03:03:04.583Z,19.31
2023-06-12T03:04:03.973Z,19.12
2023-06-12T03:06:03.776Z,19.12
2023-06-12T03:07:03.945Z,19.06
2023-06-12T03:08:04.105Z,19.38
2023-06-12T03:09:03.937Z,19.44
2023-06-12T03:10:03.631Z,19.25
2023-06-12T03:11:04.090Z,19.12
2023-06-12T03:12:03.871Z,19.00
2023-06-12T03:13:03.611Z,18.88
2023-06-12T03:14:04.324Z,18.75
2023-06-12T03:15:04.176Z,18.94
2023-06-12T03:16:04.591Z,18.88
2023-06-12T03:17:03.684Z,18.75
2023-06-12T03:18:03.874Z,18.62
2023-06-12T03:19:03.939Z,18.50
2023-06-12T03:20:03.540Z,18.62
2023-06-12T03:21:04.176Z,18.56
2023-06-12T03:23:03.777Z,18.62
2023-06-12T03:24:03.887Z,18.50
2023-06-12T03:25:04.501Z,18.31
2023-06-12T03:27:03.865Z,18.31
2023-06-12T03:28:04.180Z,18.44
2023-06-12T03:29:04.018Z,18.50
2023-06-12T03:30:04.010Z,18.56
2023-06-12T03:31:04.007Z,18.56
2023-06-12T03:32:04.021Z,18.62
2023-06-12T03:33:04.215Z,18.69
2023-06-12T03:34:04.337Z,18.69
2023-06-12T03:35:03.549Z,18.62
2023-06-12T03:36:03.450Z,18.56
2023-06-12T03:38:04.435Z,18.56
2023-06-12T03:40:03.535Z,18.81
2023-06-12T03:41:04.177Z,18.81
2023-06-12T03:42:03.793Z,18.75
2023-06-12T03:43:04.257Z,19.00
2023-06-12T03:45:04.169Z,19.06
2023-06-12T03:46:03.853Z,19.06
2023-06-12T03:47:04.033Z,19.00
2023-06-12T03:49:04.248Z,18.94
2023-06-12T03:50:03.867Z,19.00
2023-06-12T03:51:03.954Z,18.94
2023-06-12T03:52:04.177Z,19.00
2023-06-12T03:54:04.345Z,19.00
2023-06-12T03:55:03.858Z,19.06
2023-06-12T03:56:04.433Z,19.06
2023-06-12T03:59:03.855Z,19.50
2023-06-12T04:01:04.101Z,19.38
2023-06-12T04:02:03.702Z,19.38
2023-06-12T04:03:04.486Z,19.69
2023-06-12T04:04:04.174Z,19.75
2023-06-12T04:05:04.359Z,19.81
2023-06-12T04:06:04.511Z,19.88
2023-06-12T04:07:04.047Z,19.88
2023-06-12T04:10:04.690Z,20.12
2023-06-12T04:12:04.255Z,20.31
2023-06-12T04:13:03.937Z,20.50
2023-06-12T04:14:04.096Z,20.62
2023-06-12T04:15:04.017Z,20.62
2023-06-12T04:16:03.634Z,20.81
2023-06-12T04:17:03.931Z,21.06
2023-06-12T04:18:03.737Z,21.31
2023-06-12T04:21:03.680Z,21.56
2023-06-12T04:22:03.699Z,21.56
2023-06-12T04:23:04.329Z,21.62
2023-06-12T04:24:04.154Z,21.69
2023-06-12T04:25:04.437Z,21.75
2023-06-12T04:26:04.282Z,21.75
2023-06-12T04:27:04.093Z,22.12
2023-06-12T04:28:04.020Z,22.12
2023-06-12T04:29:03.623Z,22.12
2023-06-12T04:30:03.860Z,22.12
2023-06-12T04:31:04.142Z,22.19
2023-06-12T04:32:03.950Z,22.44
2023-06-12T04:33:04.506Z,22.56
2023-06-12T04:34:04.447Z,22.62
2023-06-12T04:36:04.045Z,22.69
2023-06-12T04:38:03.621Z,23.06
2023-06-12T04:40:03.952Z,23.31
2023-06-12T04:41:03.879Z,23.56
2023-06-12T04:42:04.173Z,23.75
2023-06-12T04:43:03.930Z,23.81
2023-06-12T04:44:03.938Z,23.94
2023-06-12T04:45:03.551Z,24.00
2023-06-12T04:46:03.964Z,23.81
2023-06-12T04:47:04.166Z,23.75
2023-06-12T04:48:03.838Z,23.62
2023-06-12T04:49:03.827Z,23.69
2023-06-12T04:51:03.795Z,23.88
2023-06-12T04:52:03.537Z,24.06
2023-06-12T04:53:04.183Z,24.31
2023-06-12T04:54:05.979Z,24.38
2023-06-12T04:56:04.170Z,24.75
2023-06-12T04:58:04.523Z,25.06
2023-06-12T05:00:04.019Z,25.25
2023-06-12T05:01:04.176Z,25.31
2023-06-12T05:02:03.782Z,25.62
2023-06-12T05:03:04.572Z,25.69
2023-06-12T05:04:04.267Z,25.81
2023-06-12T05:05:04.098Z,25.88
2023-06-12T05:07:03.856Z,26.12
2023-06-12T05:09:04.252Z,26.38
2023-06-12T05:11:03.616Z,26.19
2023-06-12T05:12:04.251Z,26.19
2023-06-12T05:13:04.338Z,26.62
2023-06-12T05:15:04.260Z,26.38
2023-06-12T05:17:03.952Z,26.62
2023-06-12T05:18:04.093Z,26.69
2023-06-12T05:19:03.552Z,26.62
2023-06-12T05:20:03.538Z,26.94
2023-06-12T05:22:04.348Z,26.94
2023-06-12T05:23:03.930Z,27.12
2023-06-12T05:25:04.422Z,27.19
2023-06-12T05:26:04.178Z,27.31
2023-06-12T05:27:04.266Z,27.19
2023-06-12T05:28:03.928Z,27.19
2023-06-12T05:29:04.118Z,27.12
2023-06-12T05:30:04.182Z,27.06
2023-06-12T05:31:03.864Z,27.31
2023-06-12T05:32:03.964Z,27.31
2023-06-12T05:34:04.337Z,27.50
2023-06-12T05:35:04.105Z,27.94
2023-06-12T05:36:03.764Z,28.12
2023-06-12T05:37:03.541Z,28.44
2023-06-12T05:38:03.626Z,28.69
2023-06-12T05:39:05.344Z,28.94
2023-06-12T05:40:03.937Z,29.19
2023-06-12T05:41:04.462Z,29.50
2023-06-12T05:43:04.420Z,30.00
2023-06-12T05:44:09.545Z,30.25
2023-06-12T05:46:03.803Z,30.44
2023-06-12T05:47:04.528Z,30.75
2023-06-12T05:49:04.203Z,30.81
2023-06-12T05:50:04.583Z,30.94
2023-06-12T05:51:04.322Z,31.06
2023-06-12T05:52:04.201Z,31.19
2023-06-12T05:54:04.498Z,31.44
2023-06-12T05:56:05.722Z,31.06
2023-06-12T05:57:04.381Z,31.12
2023-06-12T05:58:06.613Z,31.00
2023-06-12T05:59:04.096Z,30.94
2023-06-12T06:00:04.208Z,31.12
2023-06-12T06:02:03.872Z,31.00
2023-06-12T06:03:04.555Z,31.19
2023-06-12T06:05:04.094Z,31.25
2023-06-12T06:06:04.337Z,31.31
2023-06-12T06:07:10.094Z,31.19
2023-06-12T06:08:03.809Z,31.25
2023-06-12T06:09:03.781Z,31.31
2023-06-12T06:11:03.619Z,31.38
2023-06-12T06:12:04.415Z,31.12
2023-06-12T06:13:04.976Z,31.00
2023-06-12T06:15:04.429Z,30.88
2023-06-12T06:16:04.226Z,31.12
2023-06-12T06:17:03.987Z,31.50
2023-06-12T06:18:03.616Z,31.38
2023-06-12T06:21:04.183Z,31.50
2023-06-12T06:22:04.333Z,31.31
2023-06-12T06:25:03.952Z,31.69
2023-06-12T06:26:03.653Z,32.00
2023-06-12T06:27:04.446Z,32.19
2023-06-12T06:28:04.109Z,32.19
2023-06-12T06:29:13.343Z,32.00
2023-06-12T06:30:04.262Z,31.94
2023-06-12T06:32:03.915Z,32.06
2023-06-12T06:33:03.942Z,32.06
2023-06-12T06:34:04.181Z,32.19
2023-06-12T06:35:03.945Z,32.50
2023-06-12T06:36:03.646Z,32.44
2023-06-12T06:37:04.404Z,32.56
2023-06-12T06:39:03.694Z,32.81
2023-06-12T06:40:04.425Z,32.62
2023-06-12T06:41:04.026Z,32.56
2023-06-12T06:42:04.098Z,32.19
2023-06-12T06:43:03.776Z,32.25
2023-06-12T06:44:03.855Z,32.38
2023-06-12T06:45:03.614Z,32.31
2023-06-12T06:46:05.924Z,32.38
2023-06-12T06:48:03.600Z,32.44
2023-06-12T06:50:04.435Z,32.56
2023-06-12T06:51:04.176Z,32.75
2023-06-12T06:52:03.933Z,32.75
2023-06-12T06:53:04.102Z,32.75
2023-06-12T06:54:04.008Z,32.69
2023-06-12T06:55:04.103Z,32.69
2023-06-12T06:56:03.698Z,32.75
2023-06-12T06:57:03.602Z,32.81
2023-06-12T06:58:04.308Z,32.56
2023-06-12T07:00:03.973Z,32.38
2023-06-12T07:01:03.840Z,32.50
2023-06-12T07:02:04.496Z,32.19
2023-06-12T07:03:04.163Z,32.12
2023-06-12T07:04:04.277Z,32.06
2023-06-12T07:07:03.536Z,31.81
2023-06-12T07:08:04.384Z,31.69
2023-06-12T07:11:03.682Z,31.88
2023-06-12T07:12:04.453Z,31.94
2023-06-12T07:14:03.625Z,31.88
2023-06-12T07:15:04.264Z,31.81
2023-06-12T07:16:04.010Z,32.00
2023-06-12T07:18:04.537Z,32.12
2023-06-12T07:20:03.946Z,32.19
2023-06-12T07:21:03.809Z,32.12
2023-06-12T07:22:03.563Z,32.25
2023-06-12T07:23:04.267Z,32.19
2023-06-12T07:24:03.919Z,31.94
2023-06-12T07:26:11.494Z,32.12
2023-06-12T07:27:04.175Z,32.06
2023-06-12T07:28:04.180Z,32.12
2023-06-12T07:30:03.628Z,32.44
2023-06-12T07:33:03.963Z,32.38
2023-06-12T07:34:06.264Z,32.38
2023-06-12T07:36:03.547Z,32.56
2023-06-12T07:37:04.350Z,32.56
2023-06-12T07:38:04.418Z,32.56
2023-06-12T07:40:04.352Z,32.56
2023-06-12T07:42:03.789Z,32.19
2023-06-12T07:44:03.847Z,32.44
2023-06-12T07:45:04.504Z,32.44
2023-06-12T07:47:04.087Z,32.31
2023-06-12T07:48:04.013Z,32.19
2023-06-12T07:49:04.173Z,32.31
2023-06-12T07:50:03.938Z,32.25
2023-06-12T07:51:03.644Z,32.12
2023-06-12T07:53:04.354Z,32.06
2023-06-12T07:54:03.953Z,31.81
2023-06-12T07:55:03.584Z,31.44
2023-06-12T07:56:04.264Z,31.44
2023-06-12T07:57:04.503Z,31.50
2023-06-12T07:58:03.937Z,31.25
2023-06-12T07:59:03.687Z,31.19
2023-06-12T08:00:04.546Z,31.25
2023-06-12T08:01:08.673Z,31.12
2023-06-12T08:02:03.866Z,31.31
2023-06-12T08:03:10.990Z,31.38
2023-06-12T08:04:04.557Z,31.25
2023-06-12T08:06:05.242Z,31.19
2023-06-12T08:07:04.455Z,31.06
2023-06-12T08:08:04.204Z,30.94
2023-06-12T08:09:03.626Z,30.69
2023-06-12T08:10:04.496Z,30.81
2023-06-12T08:11:04.100Z,30.75
2023-06-12T08:13:04.370Z,30.56
2023-06-12T08:14:04.417Z,30.56
2023-06-12T08:15:04.104Z,30.44
2023-06-12T08:16:04.103Z,30.38
2023-06-12T08:17:04.116Z,30.44
2023-06-12T08:18:03.748Z,30.38
2023-06-12T08:19:03.722Z,30.25
2023-06-12T08:20:03.541Z,30.44
2023-06-12T08:21:04.182Z,30.56
2023-06-12T08:23:04.111Z,30.62
2023-06-12T08:25:03.856Z,30.44
2023-06-12T08:27:03.780Z,30.31
2023-06-12T08:29:04.198Z,30.25
2023-06-12T08:30:04.428Z,30.12
2023-06-12T08:31:04.071Z,30.06
2023-06-12T08:32:04.267Z,30.06
2023-06-12T08:33:04.510Z,30.06
2023-06-12T08:35:03.784Z,30.06
2023-06-12T08:36:04.574Z,29.88
2023-06-12T08:39:04.432Z,30.19
2023-06-12T08:41:04.209Z,30.12
2023-06-12T08:42:04.189Z,30.06
2023-06-12T08:43:04.178Z,30.19
2023-06-12T08:44:04.258Z,30.25
2023-06-12T08:45:15.811Z,30.31
2023-06-12T08:47:03.868Z,29.81
2023-06-12T08:48:03.734Z,29.44
2023-06-12T08:50:03.462Z,29.81
2023-06-12T08:51:03.612Z,29.75
2023-06-12T08:52:03.798Z,29.56
2023-06-12T08:53:04.430Z,29.38
2023-06-12T08:55:03.648Z,29.38
2023-06-12T08:56:04.509Z,29.31
2023-06-12T08:57:04.300Z,29.00
2023-06-12T08:58:04.323Z,29.06
2023-06-12T09:00:04.185Z,29.44
2023-06-12T09:02:14.393Z,28.94
2023-06-12T09:03:04.425Z,28.75
2023-06-12T09:04:04.105Z,28.88
2023-06-12T09:05:04.129Z,28.81
2023-06-12T09:06:04.187Z,28.75
2023-06-12T09:07:03.959Z,28.69
2023-06-12T09:08:03.459Z,28.81
2023-06-12T09:09:04.265Z,28.62
2023-06-12T09:10:13.241Z,28.38
2023-06-12T09:11:04.273Z,28.06
2023-06-12T09:13:03.867Z,27.81
2023-06-12T09:14:03.551Z,27.69
2023-06-12T09:15:04.106Z,27.62
2023-06-12T09:16:03.810Z,27.69
2023-06-12T09:17:03.633Z,27.88
2023-06-12T09:18:03.853Z,27.94
2023-06-12T09:19:03.794Z,27.75
2023-06-12T09:20:03.722Z,28.00
2023-06-12T09:21:04.340Z,28.19
2023-06-12T09:22:04.097Z,28.38
2023-06-12T09:24:04.423Z,28.50
2023-06-12T09:25:04.191Z,28.38
2023-06-12T09:26:15.186Z,28.31
2023-06-12T09:27:04.015Z,28.31
2023-06-12T09:28:03.627Z,28.19
2023-06-12T09:29:04.090Z,28.19
2023-06-12T09:31:03.619Z,27.88
2023-06-12T09:32:04.463Z,27.56
2023-06-12T09:33:04.482Z,27.50
2023-06-12T09:34:04.583Z,27.44
2023-06-12T09:35:04.102Z,27.56
2023-06-12T09:37:03.539Z,27.88
2023-06-12T09:39:04.338Z,27.88
2023-06-12T09:41:03.685Z,27.56
2023-06-12T09:42:04.414Z,27.62
2023-06-12T09:43:03.851Z,27.56
2023-06-12T09:44:04.100Z,27.38
2023-06-12T09:45:03.811Z,27.12
2023-06-12T09:46:04.564Z,27.19
2023-06-12T09:48:04.200Z,27.12
2023-06-12T09:49:04.084Z,27.00
2023-06-12T09:50:03.687Z,27.06
2023-06-12T09:51:04.347Z,27.12
2023-06-12T09:53:04.014Z,27.00
2023-06-12T09:55:04.587Z,26.69
2023-06-12T09:56:04.168Z,26.50
2023-06-12T09:58:03.777Z,26.56
2023-06-12T09:59:03.651Z,26.62
2023-06-12T10:01:04.185Z,26.81
2023-06-12T10:02:03.816Z,26.88
2023-06-12T10:03:04.034Z,27.00
2023-06-12T10:04:03.804Z,27.12
2023-06-12T10:05:03.531Z,27.31
2023-06-12T10:06:04.332Z,27.38
2023-06-12T10:07:03.949Z,27.25
2023-06-12T10:08:03.553Z,27.19
2023-06-12T10:09:03.858Z,27.19
2023-06-12T10:11:04.508Z,26.75
2023-06-12T10:13:04.096Z,26.69
2023-06-12T10:15:04.181Z,26.94
2023-06-12T10:16:04.008Z,27.06
2023-06-12T10:18:03.915Z,27.12
2023-06-12T10:19:03.797Z,27.25
2023-06-12T10:20:03.779Z,27.25
2023-06-12T10:21:03.938Z,27.25
2023-06-12T10:22:04.129Z,27.38
2023-06-12T10:23:03.709Z,27.44
2023-06-12T10:25:04.094Z,27.12
2023-06-12T10:26:03.644Z,26.94
2023-06-12T10:27:04.413Z,26.69
2023-06-12T10:28:04.017Z,26.75
2023-06-12T10:29:04.045Z,26.69
2023-06-12T10:30:03.730Z,26.56
2023-06-12T10:31:04.509Z,26.69
2023-06-12T10:32:03.806Z,26.94
2023-06-12T10:33:04.235Z,26.88
2023-06-12T10:34:04.587Z,26.88
2023-06-12T10:35:04.190Z,27.06
2023-06-12T10:36:04.193Z,26.88
2023-06-12T10:37:03.861Z,26.75
2023-06-12T10:38:03.893Z,26.81
2023-06-12T10:39:03.943Z,26.75
2023-06-12T10:40:03.704Z,26.81
2023-06-12T10:41:03.709Z,26.75
2023-06-12T10:42:04.182Z,26.75
2023-06-12T10:43:04.351Z,26.81
2023-06-12T10:45:04.272Z,26.56
2023-06-12T10:46:04.548Z,26.56
2023-06-12T10:47:04.205Z,26.50
2023-06-12T10:49:04.410Z,26.56
2023-06-12T10:51:04.269Z,26.50
2023-06-12T10:52:04.362Z,26.62
2023-06-12T10:53:04.171Z,26.69
2023-06-12T10:54:03.877Z,26.81
2023-06-12T10:55:03.953Z,26.81
2023-06-12T10:56:03.814Z,26.88
2023-06-12T10:57:03.787Z,27.00
2023-06-12T10:58:03.874Z,26.88
2023-06-12T10:59:03.547Z,27.06
2023-06-12T11:00:03.529Z,27.19
2023-06-12T11:01:03.703Z,27.19
2023-06-12T11:02:04.061Z,27.38
2023-06-12T11:03:03.998Z,27.50
2023-06-12T11:04:04.074Z,27.62
2023-06-12T11:05:04.475Z,27.62
2023-06-12T11:06:03.784Z,27.38
2023-06-12T11:08:04.368Z,27.25
2023-06-12T11:09:04.128Z,27.19
2023-06-12T11:10:04.187Z,27.06
2023-06-12T11:11:03.958Z,27.06
2023-06-12T11:13:04.103Z,26.94
2023-06-12T11:14:03.943Z,26.94
2023-06-12T11:15:03.854Z,26.88
2023-06-12T11:16:04.503Z,26.88
2023-06-12T11:18:04.313Z,27.25
2023-06-12T11:20:04.340Z,27.25
2023-06-12T11:21:03.861Z,27.25
2023-06-12T11:23:03.873Z,27.12
2023-06-12T11:24:04.002Z,26.94
2023-06-12T11:25:04.206Z,26.88
2023-06-12T11:26:04.443Z,26.75
2023-06-12T11:27:04.512Z,28.62
2023-06-12T11:28:04.085Z,26.62
2023-06-12T11:29:04.063Z,26.94
2023-06-12T11:30:07.891Z,27.19
2023-06-12T11:31:09.742Z,27.38
2023-06-12T11:33:03.583Z,27.12
2023-06-12T11:34:04.368Z,27.31
2023-06-12T11:35:04.003Z,27.06
2023-06-12T11:36:04.268Z,26.88
2023-06-12T11:37:04.446Z,26.88
2023-06-12T11:42:03.708Z,26.88
2023-06-12T11:43:04.333Z,26.88
2023-06-12T11:44:03.887Z,26.94
2023-06-12T11:45:03.535Z,27.00
2023-06-12T11:46:04.459Z,27.00
2023-06-12T11:51:04.415Z,27.12
2023-06-12T11:52:04.036Z,27.12
2023-06-12T11:53:03.770Z,27.06
2023-06-12T11:54:03.542Z,27.06
2023-06-12T11:57:04.532Z,27.56
2023-06-12T11:59:04.431Z,27.56
2023-06-12T12:01:03.869Z,27.38
2023-06-12T12:02:03.677Z,27.31
2023-06-12T12:03:03.866Z,27.44
2023-06-12T12:04:03.587Z,27.44
2023-06-12T12:05:04.542Z,27.44
2023-06-12T12:07:04.267Z,27.50
2023-06-12T12:08:03.862Z,27.50
2023-06-12T12:09:03.702Z,27.50
2023-06-12T12:10:04.336Z,27.31
2023-06-12T12:11:04.496Z,27.06
2023-06-12T12:12:04.247Z,26.94
2023-06-12T12:13:04.358Z,26.88
2023-06-12T12:14:04.489Z,26.88
2023-06-12T12:17:04.513Z,26.81
2023-06-12T12:19:03.537Z,27.12
2023-06-12T12:20:04.506Z,27.25
2023-06-12T12:21:04.119Z,27.25
2023-06-12T12:22:03.711Z,27.44
2023-06-12T12:24:04.091Z,27.56
2023-06-12T12:26:03.940Z,27.25
2023-06-12T12:27:03.628Z,27.31
2023-06-12T12:28:04.347Z,27.19
2023-06-12T12:30:04.172Z,27.12
2023-06-12T12:31:03.805Z,27.38
2023-06-12T12:32:03.504Z,27.62
2023-06-12T12:33:03.724Z,27.69
2023-06-12T12:34:04.356Z,27.94
2023-06-12T12:35:04.261Z,27.81
2023-06-12T12:36:04.450Z,27.75
2023-06-12T12:37:03.699Z,27.69
2023-06-12T12:38:04.172Z,27.50
2023-06-12T12:39:03.781Z,27.38
2023-06-12T12:40:04.457Z,27.19
2023-06-12T12:42:04.129Z,27.50
2023-06-12T12:43:03.884Z,27.38
2023-06-12T12:44:04.335Z,27.38
2023-06-12T12:47:03.731Z,27.31
2023-06-12T12:48:08.738Z,27.38
2023-06-12T12:50:06.124Z,27.50
2023-06-12T12:51:09.512Z,27.50
2023-06-12T12:52:04.124Z,27.50
2023-06-12T12:53:03.945Z,27.62
2023-06-12T12:54:03.770Z,27.62
2023-06-12T12:55:04.505Z,27.81
2023-06-12T12:57:04.262Z,28.56
2023-06-12T12:58:17.454Z,28.38
2023-06-12T12:59:04.347Z,28.12
2023-06-12T13:00:04.346Z,28.00
2023-06-12T13:01:04.126Z,28.06
2023-06-12T13:02:04.180Z,27.94
2023-06-12T13:03:04.325Z,27.69
2023-06-12T13:04:03.776Z,27.75
2023-06-12T13:05:04.435Z,27.88
2023-06-12T13:06:04.124Z,27.81
2023-06-12T13:08:04.347Z,27.81
2023-06-12T13:09:04.099Z,27.50
2023-06-12T13:11:03.864Z,27.81
2023-06-12T13:12:03.456Z,27.81
2023-06-12T13:13:04.110Z,27.88
2023-06-12T13:14:03.966Z,27.88
2023-06-12T13:15:03.792Z,28.00
2023-06-12T13:16:04.253Z,28.25
2023-06-12T13:17:04.063Z,28.19
2023-06-12T13:18:04.300Z,28.31
2023-06-12T13:20:04.263Z,28.81
2023-06-12T13:23:04.261Z,29.00
2023-06-12T13:24:03.888Z,28.75
2023-06-12T13:25:03.554Z,28.56
2023-06-12T13:27:04.422Z,28.25
2023-06-12T13:29:04.021Z,28.00
2023-06-12T13:30:03.911Z,28.25
2023-06-12T13:31:03.774Z,28.31
2023-06-12T13:33:03.896Z,28.19
2023-06-12T13:34:04.022Z,28.19
2023-06-12T13:35:03.676Z,28.25
2023-06-12T13:36:04.484Z,28.06
2023-06-12T13:39:04.522Z,27.88
2023-06-12T13:40:04.198Z,27.88
2023-06-12T13:41:04.329Z,28.12
2023-06-12T13:42:04.108Z,28.12
2023-06-12T13:44:03.709Z,28.06
2023-06-12T13:45:04.459Z,28.25
2023-06-12T13:46:04.248Z,28.19
2023-06-12T13:48:04.537Z,28.25
2023-06-12T13:49:03.638Z,28.38
2023-06-12T13:50:04.260Z,28.31
2023-06-12T13:51:04.196Z,28.06
2023-06-12T13:52:03.896Z,27.94
2023-06-12T13:53:03.642Z,27.88
2023-06-12T13:54:03.800Z,27.88
2023-06-12T13:55:03.708Z,27.69
2023-06-12T13:56:04.428Z,27.44
2023-06-12T13:57:04.356Z,27.38
2023-06-12T13:58:04.261Z,27.56
2023-06-12T14:00:03.654Z,27.38
2023-06-12T14:01:04.195Z,27.50
2023-06-12T14:02:04.464Z,27.44
2023-06-12T14:03:04.242Z,27.44
2023-06-12T14:04:03.943Z,27.44
2023-06-12T14:05:05.670Z,27.44
2023-06-12T14:07:04.448Z,27.31
2023-06-12T14:08:04.437Z,27.38
2023-06-12T14:09:03.532Z,27.19
2023-06-12T14:10:04.184Z,27.25
2023-06-12T14:11:03.781Z,27.44
2023-06-12T14:12:03.614Z,27.50
2023-06-12T14:13:04.448Z,27.50
2023-06-12T14:14:04.175Z,27.44
2023-06-12T14:15:04.254Z,27.62
2023-06-12T14:16:03.949Z,27.56
2023-06-12T14:17:04.261Z,27.56
2023-06-12T14:18:03.955Z,27.31
2023-06-12T14:19:03.792Z,27.31
2023-06-12T14:20:04.446Z,27.50
2023-06-12T14:21:04.088Z,27.44
2023-06-12T14:22:04.092Z,27.31
2023-06-12T14:23:03.695Z,27.25
2023-06-12T14:24:04.444Z,27.25
2023-06-12T14:26:04.359Z,27.62
2023-06-12T14:27:04.065Z,27.50
2023-06-12T14:28:03.858Z,27.56
2023-06-12T14:29:03.545Z,27.75
2023-06-12T14:31:04.300Z,27.75
2023-06-12T14:32:04.299Z,27.56
2023-06-12T14:33:04.401Z,27.50
2023-06-12T14:34:04.148Z,27.50
2023-06-12T14:35:03.865Z,27.50
2023-06-12T14:36:03.709Z,27.44
2023-06-12T14:37:04.343Z,27.62
2023-06-12T14:38:03.958Z,27.62
2023-06-12T14:40:04.506Z,27.56
2023-06-12T14:42:03.717Z,27.25
2023-06-12T14:43:04.327Z,27.31
2023-06-12T14:45:03.715Z,27.50
2023-06-12T14:46:04.179Z,27.50
2023-06-12T14:47:04.279Z,27.44
2023-06-12T14:48:04.000Z,27.50
2023-06-12T14:49:03.637Z,27.50
2023-06-12T14:51:03.868Z,27.56
2023-06-12T14:52:04.589Z,27.44
2023-06-12T14:53:04.437Z,27.44
2023-06-12T14:54:04.095Z,27.62
2023-06-12T14:55:04.175Z,27.62
2023-06-12T14:56:04.061Z,27.69
2023-06-12T14:57:04.343Z,27.62
2023-06-12T14:58:04.204Z,27.62
2023-06-12T14:59:03.889Z,27.69
2023-06-12T15:00:03.976Z,27.50
2023-06-12T15:01:03.684Z,27.44
2023-06-12T15:02:03.714Z,27.38
2023-06-12T15:03:04.667Z,27.38
2023-06-12T15:05:03.618Z,27.31
2023-06-12T15:06:03.692Z,27.19
2023-06-12T15:07:04.416Z,27.44
2023-06-12T15:08:03.954Z,27.31
2023-06-12T15:10:04.282Z,27.38
2023-06-12T15:11:03.975Z,27.44
2023-06-12T15:12:04.124Z,27.38
2023-06-12T15:13:09.979Z,27.31
2023-06-12T15:15:03.626Z,27.19
2023-06-12T15:16:04.481Z,27.06
2023-06-12T15:18:04.005Z,27.06
2023-06-12T15:19:04.268Z,27.06
2023-06-12T15:20:04.920Z,27.00
2023-06-12T15:22:04.418Z,27.12
2023-06-12T15:23:04.504Z,27.12
2023-06-12T15:24:03.727Z,27.12
2023-06-12T15:25:04.231Z,27.06
2023-06-12T15:26:03.999Z,26.94
2023-06-12T15:28:04.428Z,27.12
2023-06-12T15:29:04.101Z,27.19
2023-06-12T15:31:04.514Z,27.25
2023-06-12T15:33:04.355Z,27.12
2023-06-12T15:34:04.149Z,27.62
2023-06-12T15:35:03.864Z,27.56
2023-06-12T15:37:04.498Z,27.50
2023-06-12T15:38:04.173Z,27.50
2023-06-12T15:39:04.257Z,27.50
2023-06-12T15:40:03.999Z,27.19
2023-06-12T15:41:03.921Z,27.06
2023-06-12T15:42:05.285Z,27.00
2023-06-12T15:43:04.626Z,26.94
2023-06-12T15:44:04.355Z,26.94
2023-06-12T15:45:03.935Z,26.88
2023-06-12T15:46:03.712Z,26.69
2023-06-12T15:47:04.087Z,26.75
2023-06-12T15:48:03.977Z,26.75
2023-06-12T15:49:03.793Z,26.75
2023-06-12T15:50:03.557Z,26.69
2023-06-12T15:51:04.330Z,26.81
2023-06-12T15:52:03.856Z,26.69
2023-06-12T15:53:03.527Z,26.75
2023-06-12T15:54:04.251Z,26.62
2023-06-12T15:55:03.902Z,26.50
2023-06-12T15:56:04.062Z,26.50
2023-06-12T15:58:03.821Z,26.50
2023-06-12T15:59:04.044Z,26.50
2023-06-12T16:00:04.580Z,26.50
2023-06-12T16:01:04.424Z,26.56
2023-06-12T16:02:04.020Z,26.56
2023-06-12T16:03:04.163Z,26.50
2023-06-12T16:04:03.873Z,26.44
2023-06-12T16:05:03.805Z,26.50
2023-06-12T16:06:04.415Z,26.56